Time;durP1;ratioP1;P1;durP2;ratioP2;P2;SDS_P1;SDS_P2;PMS_P1;PMS_P2;Temp;Humidity;BMP_temperature;BMP_pressure;BME280_temperature;BME280_humidity;BME280_pressure;Samples;Min_cycle;Max_cycle;Signal;HPM_P1;HPM_P2
2022/09/02 00:01:47;;;;;;;3.97;0.50;;;14.30;97.80;;;;;;5058983;28;20043;-67
2022/09/02 00:04:24;;;;;;;2.20;0.50;;;14.30;97.90;;;;;;5065895;28;20036;-65
2022/09/02 00:06:52;;;;;;;3.75;0.40;;;14.20;98.00;;;;;;5061942;28;20400;-66
2022/09/02 00:09:21;;;;;;;1.23;0.30;;;14.20;98.10;;;;;;5077154;28;20031;-65
2022/09/02 00:11:49;;;;;;;2.80;0.50;;;14.20;98.40;;;;;;5077951;28;20150;-65
2022/09/02 00:14:19;;;;;;;1.70;0.50;;;14.20;98.00;;;;;;5082062;28;20037;-65
2022/09/02 00:16:49;;;;;;;1.92;0.30;;;14.10;98.10;;;;;;5084054;28;20071;-65
2022/09/02 00:19:17;;;;;;;1.15;0.40;;;14.10;98.40;;;;;;5066668;28;20119;-65
2022/09/02 00:21:44;;;;;;;2.58;0.47;;;14.00;98.50;;;;;;5066242;28;20036;-65
2022/09/02 00:24:09;;;;;;;1.23;0.60;;;14.00;98.50;;;;;;5083132;28;20118;-64
2022/09/02 00:26:35;;;;;;;1.77;0.40;;;14.00;98.60;;;;;;5064567;28;20173;-66
2022/09/02 00:29:01;;;;;;;0.63;0.38;;;13.90;98.90;;;;;;5081865;28;20112;-66
2022/09/02 00:31:27;;;;;;;2.30;0.50;;;13.90;99.00;;;;;;5078363;28;20111;-65
2022/09/02 00:33:54;;;;;;;1.13;0.47;;;13.90;99.10;;;;;;5078342;28;20071;-65
2022/09/02 00:36:19;;;;;;;2.30;0.50;;;13.90;99.10;;;;;;5068324;28;20044;-66
2022/09/02 00:38:45;;;;;;;2.63;0.60;;;13.80;99.20;;;;;;5042036;28;20125;-65
2022/09/02 00:41:11;;;;;;;0.95;0.45;;;13.90;99.40;;;;;;5081314;28;20064;-65
2022/09/02 00:44:06;;;;;;;3.45;0.65;;;13.80;99.50;;;;;;5065886;28;21146;-65
2022/09/02 00:46:32;;;;;;;1.98;0.50;;;13.80;99.60;;;;;;5069976;28;20145;-65
2022/09/02 00:49:23;;;;;;;1.08;0.45;;;13.70;99.90;;;;;;5060392;28;20082;-65
2022/09/02 00:51:56;;;;;;;2.17;0.52;;;13.80;99.90;;;;;;5042840;28;20106;-66
2022/09/02 00:54:24;;;;;;;1.20;0.45;;;13.70;99.90;;;;;;5063116;28;20169;-66
2022/09/02 00:56:51;;;;;;;3.10;0.60;;;13.70;99.90;;;;;;5064884;28;20028;-66
2022/09/02 00:59:25;;;;;;;3.47;0.50;;;13.70;99.90;;;;;;5076007;28;20107;-65
2022/09/02 01:01:50;;;;;;;1.73;0.80;;;13.60;99.90;;;;;;5082522;28;20064;-65
2022/09/02 01:04:16;;;;;;;1.58;0.45;;;13.60;99.90;;;;;;5059206;28;20080;-65
2022/09/02 01:06:43;;;;;;;1.88;0.60;;;13.60;99.90;;;;;;5061415;28;20054;-65
2022/09/02 01:09:15;;;;;;;2.00;0.60;;;13.60;99.90;;;;;;5078789;28;20047;-65
2022/09/02 01:11:46;;;;;;;0.93;0.40;;;13.50;99.90;;;;;;5059676;28;20055;-65
2022/09/02 01:14:14;;;;;;;3.42;0.52;;;13.50;99.90;;;;;;5059948;28;20119;-66
2022/09/02 01:16:46;;;;;;;0.60;0.40;;;13.50;99.90;;;;;;5061350;28;20048;-65
2022/09/02 01:19:24;;;;;;;1.73;0.40;;;13.50;99.90;;;;;;5079014;28;20032;-65
2022/09/02 01:21:54;;;;;;;1.85;0.35;;;13.50;99.90;;;;;;5061326;28;20545;-66
2022/09/02 01:24:24;;;;;;;1.00;0.55;;;13.50;99.90;;;;;;5084798;28;20037;-65
2022/09/02 01:26:53;;;;;;;0.60;0.40;;;13.50;99.90;;;;;;5056142;28;20074;-65
2022/09/02 01:29:19;;;;;;;1.70;0.50;;;13.50;99.90;;;;;;5062606;28;20059;-65
2022/09/02 01:31:44;;;;;;;1.58;0.65;;;13.50;99.90;;;;;;5060959;28;20091;-66
2022/09/02 01:34:10;;;;;;;5.05;0.32;;;13.50;99.90;;;;;;5060477;28;20536;-65
2022/09/02 01:36:41;;;;;;;2.08;0.40;;;13.40;99.90;;;;;;5057705;28;20032;-65
2022/09/02 01:39:09;;;;;;;0.98;0.40;;;13.50;99.90;;;;;;5059922;28;20507;-65
2022/09/02 01:41:35;;;;;;;1.30;0.50;;;13.40;99.90;;;;;;5077281;28;20462;-66
2022/09/02 01:44:01;;;;;;;0.80;0.40;;;13.50;99.90;;;;;;5064192;28;20047;-65
2022/09/02 01:46:27;;;;;;;2.22;0.40;;;13.50;99.90;;;;;;5076181;28;20504;-65
2022/09/02 01:48:53;;;;;;;3.45;0.68;;;13.40;99.90;;;;;;5075709;28;20045;-65
2022/09/02 01:51:19;;;;;;;2.45;0.50;;;13.40;99.90;;;;;;5062198;28;20130;-65
2022/09/02 01:53:47;;;;;;;1.15;0.50;;;13.40;99.90;;;;;;5062507;28;20071;-65
2022/09/02 01:56:14;;;;;;;0.88;0.30;;;13.40;99.90;;;;;;5079443;28;20143;-65
2022/09/02 01:58:40;;;;;;;5.18;0.50;;;13.30;99.90;;;;;;5061215;28;20043;-65
2022/09/02 02:01:06;;;;;;;1.10;0.50;;;13.30;99.90;;;;;;5059109;28;20165;-65
2022/09/02 02:03:34;;;;;;;0.80;0.43;;;13.30;99.90;;;;;;5075896;28;20036;-66
2022/09/02 02:06:12;;;;;;;1.92;0.43;;;13.20;99.90;;;;;;5080331;28;20051;-66
2022/09/02 02:08:38;;;;;;;1.42;0.40;;;13.30;99.90;;;;;;5080786;28;20092;-65
2022/09/02 02:11:05;;;;;;;0.43;0.35;;;13.20;99.90;;;;;;5077992;28;20111;-65
2022/09/02 02:13:31;;;;;;;2.92;0.40;;;13.20;99.90;;;;;;5063884;28;20036;-65
2022/09/02 02:15:57;;;;;;;0.63;0.45;;;13.10;99.90;;;;;;5065322;28;20467;-67
2022/09/02 02:18:23;;;;;;;1.58;0.40;;;13.10;99.90;;;;;;5061968;28;20032;-65
2022/09/02 02:20:48;;;;;;;2.63;0.50;;;13.00;99.90;;;;;;5073547;28;20032;-65
2022/09/02 02:23:14;;;;;;;2.25;0.60;;;13.00;99.90;;;;;;5079762;28;20456;-66
2022/09/02 02:25:40;;;;;;;1.48;0.52;;;13.00;99.90;;;;;;5086341;28;20427;-65
2022/09/02 02:28:06;;;;;;;2.60;0.43;;;12.90;99.90;;;;;;5061558;28;20140;-65
2022/09/02 02:30:32;;;;;;;0.52;0.35;;;13.00;99.90;;;;;;5081980;28;20048;-65
2022/09/02 02:32:58;;;;;;;0.93;0.40;;;12.90;99.90;;;;;;5063430;28;20040;-66
2022/09/02 02:35:24;;;;;;;1.60;0.50;;;12.90;99.90;;;;;;5065513;28;20094;-65
2022/09/02 02:37:51;;;;;;;1.63;0.50;;;12.90;99.90;;;;;;5059119;28;20504;-65
2022/09/02 02:40:19;;;;;;;2.53;0.60;;;12.90;99.90;;;;;;5083786;28;20028;-66
2022/09/02 02:42:45;;;;;;;2.08;0.50;;;12.90;99.90;;;;;;5065542;28;20135;-66
2022/09/02 02:45:12;;;;;;;1.15;0.50;;;12.80;99.90;;;;;;5066428;28;20511;-66
2022/09/02 02:47:44;;;;;;;1.88;0.40;;;12.80;99.90;;;;;;5061330;28;20147;-65
2022/09/02 02:50:12;;;;;;;2.70;0.45;;;12.80;99.90;;;;;;5067793;28;20047;-65
2022/09/02 02:52:40;;;;;;;2.53;0.75;;;12.70;99.90;;;;;;5076277;28;20056;-65
2022/09/02 02:55:08;;;;;;;2.08;0.60;;;12.80;99.90;;;;;;5076398;28;20170;-66
2022/09/02 02:57:35;;;;;;;2.25;0.50;;;12.70;99.90;;;;;;5056718;28;20032;-66
2022/09/02 03:00:10;;;;;;;2.03;0.60;;;12.70;99.90;;;;;;5059594;28;20037;-66
2022/09/02 03:02:35;;;;;;;3.20;0.55;;;12.70;99.90;;;;;;5064951;28;20040;-66
2022/09/02 03:05:04;;;;;;;2.05;0.57;;;12.60;99.90;;;;;;5062203;28;20047;-66
2022/09/02 03:07:30;;;;;;;2.00;0.68;;;12.60;99.90;;;;;;5061939;28;20274;-66
2022/09/02 03:09:55;;;;;;;1.10;0.60;;;12.60;99.90;;;;;;5079642;28;20040;-65
2022/09/02 03:12:22;;;;;;;4.32;0.50;;;12.60;99.90;;;;;;5063567;28;20040;-66
2022/09/02 03:14:48;;;;;;;1.80;0.50;;;12.60;99.90;;;;;;5058723;28;20055;-66
2022/09/02 03:17:14;;;;;;;3.65;0.60;;;12.60;99.90;;;;;;5081535;28;20047;-66
2022/09/02 03:19:40;;;;;;;2.17;0.52;;;12.50;99.90;;;;;;5056403;28;20044;-66
2022/09/02 03:22:06;;;;;;;1.70;0.60;;;12.50;99.90;;;;;;5063687;28;20165;-66
2022/09/02 03:24:31;;;;;;;2.00;0.45;;;12.50;99.90;;;;;;5076138;28;20036;-66
2022/09/02 03:26:57;;;;;;;5.07;1.00;;;12.40;99.90;;;;;;5069783;28;20039;-66
2022/09/02 03:29:23;;;;;;;1.70;0.60;;;12.40;99.90;;;;;;5064876;28;20190;-65
2022/09/02 03:31:49;;;;;;;1.80;0.60;;;12.40;99.90;;;;;;5071130;28;20052;-66
2022/09/02 03:34:14;;;;;;;1.80;0.70;;;12.40;99.90;;;;;;5058734;28;20445;-66
2022/09/02 03:36:43;;;;;;;2.88;0.65;;;12.40;99.90;;;;;;5084109;28;20533;-66
2022/09/02 03:39:10;;;;;;;2.58;0.77;;;12.40;99.90;;;;;;5048894;28;20510;-65
2022/09/02 03:41:39;;;;;;;2.55;0.60;;;12.40;99.90;;;;;;5084310;28;20107;-66
2022/09/02 03:44:06;;;;;;;5.03;0.63;;;12.40;99.90;;;;;;5058498;28;20111;-65
2022/09/02 03:46:32;;;;;;;3.30;0.70;;;12.30;99.90;;;;;;5066423;28;20371;-66
2022/09/02 03:48:58;;;;;;;1.80;0.70;;;12.30;99.90;;;;;;5059030;28;20079;-66
2022/09/02 03:51:24;;;;;;;2.35;0.60;;;12.30;99.90;;;;;;5059425;28;20088;-66
2022/09/02 03:53:50;;;;;;;2.75;0.68;;;12.30;99.90;;;;;;5080740;28;20058;-66
2022/09/02 03:56:17;;;;;;;0.73;0.50;;;12.30;99.90;;;;;;5064498;28;20491;-66
2022/09/02 03:58:45;;;;;;;1.77;0.57;;;12.30;99.90;;;;;;5063551;28;20510;-66
2022/09/02 04:01:29;;;;;;;2.17;0.70;;;12.20;99.90;;;;;;5079087;28;20373;-66
2022/09/02 04:03:55;;;;;;;1.60;0.63;;;12.30;99.90;;;;;;5069498;28;20055;-66
2022/09/02 04:06:22;;;;;;;1.40;0.60;;;12.20;99.90;;;;;;5060938;28;20443;-65
2022/09/02 04:08:48;;;;;;;2.53;0.80;;;12.20;99.90;;;;;;5063808;28;20060;-66
2022/09/02 04:11:17;;;;;;;1.90;0.80;;;12.20;99.90;;;;;;5073739;28;20040;-66
2022/09/02 04:13:44;;;;;;;1.42;0.70;;;12.20;99.90;;;;;;5080452;28;20037;-66
2022/09/02 04:16:16;;;;;;;1.73;0.73;;;12.20;99.90;;;;;;5067496;28;20106;-66
2022/09/02 04:18:42;;;;;;;2.33;0.80;;;12.10;99.90;;;;;;5059502;28;20058;-66
2022/09/02 04:21:08;;;;;;;1.77;0.70;;;12.10;99.90;;;;;;5064853;28;20397;-65
2022/09/02 04:23:34;;;;;;;3.03;1.08;;;12.10;99.90;;;;;;5081993;28;20062;-66
2022/09/02 04:26:12;;;;;;;3.90;0.80;;;12.10;99.90;;;;;;5047886;28;20048;-65
2022/09/02 04:28:38;;;;;;;3.15;0.85;;;12.10;99.90;;;;;;5059939;28;20123;-65
2022/09/02 04:31:06;;;;;;;3.10;0.82;;;12.10;99.90;;;;;;5042743;28;20045;-66
2022/09/02 04:33:32;;;;;;;1.13;0.50;;;12.00;99.90;;;;;;5076379;28;20042;-66
2022/09/02 04:35:57;;;;;;;2.08;0.95;;;12.00;99.90;;;;;;5078491;28;20037;-66
2022/09/02 04:38:23;;;;;;;2.15;0.60;;;12.00;99.90;;;;;;5079034;28;20097;-66
2022/09/02 04:40:49;;;;;;;3.22;0.90;;;12.00;99.90;;;;;;5079618;28;20032;-66
2022/09/02 04:43:14;;;;;;;2.38;1.10;;;12.00;99.90;;;;;;5065585;28;20059;-66
2022/09/02 04:45:43;;;;;;;4.97;0.90;;;12.00;99.90;;;;;;5072261;28;20045;-67
2022/09/02 04:48:09;;;;;;;1.85;0.73;;;12.00;99.90;;;;;;5062974;28;20059;-66
2022/09/02 04:50:37;;;;;;;1.90;0.77;;;12.00;99.90;;;;;;5068045;28;20082;-67
2022/09/02 04:53:03;;;;;;;1.08;0.70;;;11.90;99.90;;;;;;5066507;28;20056;-67
2022/09/02 04:55:29;;;;;;;1.67;0.60;;;11.90;99.90;;;;;;5084392;28;20036;-66
2022/09/02 04:57:55;;;;;;;5.07;1.00;;;11.90;99.90;;;;;;5077006;28;20048;-67
2022/09/02 05:00:21;;;;;;;2.10;0.63;;;12.00;99.90;;;;;;5068631;28;20043;-66
2022/09/02 05:02:47;;;;;;;1.50;0.70;;;11.90;99.90;;;;;;5059903;28;20127;-66
2022/09/02 05:05:12;;;;;;;3.67;0.70;;;12.00;99.90;;;;;;5065023;28;20033;-67
2022/09/02 05:07:38;;;;;;;4.47;1.23;;;12.00;99.90;;;;;;5065368;28;20089;-66
2022/09/02 05:10:05;;;;;;;1.88;0.82;;;12.00;99.90;;;;;;5053465;28;20056;-67
2022/09/02 05:12:32;;;;;;;2.58;0.85;;;12.00;99.90;;;;;;5063833;28;20052;-66
2022/09/02 05:14:59;;;;;;;5.38;2.83;;;12.10;99.90;;;;;;5063921;28;20040;-67
2022/09/02 05:17:27;;;;;;;1.85;0.98;;;12.10;99.90;;;;;;5062078;28;20252;-67
2022/09/02 05:19:53;;;;;;;2.65;0.93;;;12.10;99.90;;;;;;5062798;28;20040;-66
2022/09/02 05:22:19;;;;;;;2.22;0.75;;;12.10;99.90;;;;;;5063668;28;20063;-66
2022/09/02 05:24:45;;;;;;;3.95;1.17;;;12.20;99.90;;;;;;5060300;28;20048;-66
2022/09/02 05:27:14;;;;;;;4.53;0.80;;;12.20;99.90;;;;;;5066188;28;20044;-66
2022/09/02 05:29:40;;;;;;;3.85;0.90;;;12.20;99.90;;;;;;5084865;28;20051;-67
2022/09/02 05:32:07;;;;;;;1.48;0.68;;;12.30;99.90;;;;;;5069747;28;20032;-67
2022/09/02 05:34:34;;;;;;;3.15;0.70;;;12.40;99.90;;;;;;5058875;28;20048;-67
2022/09/02 05:37:01;;;;;;;1.92;0.90;;;12.40;99.90;;;;;;5083601;28;20561;-67
2022/09/02 05:39:27;;;;;;;3.83;0.65;;;12.50;99.90;;;;;;5077971;28;20032;-66
2022/09/02 05:41:53;;;;;;;5.55;1.50;;;12.50;99.90;;;;;;5064673;28;20074;-65
2022/09/02 05:44:19;;;;;;;1.67;0.68;;;12.60;99.90;;;;;;5056630;28;20109;-64
2022/09/02 05:46:45;;;;;;;2.58;0.77;;;12.70;99.90;;;;;;5062794;28;20044;-64
2022/09/02 05:49:16;;;;;;;2.95;0.77;;;12.80;99.90;;;;;;5060650;28;20044;-65
2022/09/02 05:51:45;;;;;;;4.25;0.90;;;12.90;99.90;;;;;;5064699;28;20150;-64
2022/09/02 05:54:17;;;;;;;2.50;0.90;;;13.00;99.90;;;;;;5081758;28;20044;-65
2022/09/02 05:56:45;;;;;;;2.08;0.77;;;13.20;99.90;;;;;;5067637;28;20075;-66
2022/09/02 05:59:11;;;;;;;1.63;0.80;;;13.30;99.90;;;;;;5064335;28;20132;-65
2022/09/02 06:01:37;;;;;;;2.88;0.80;;;13.40;99.90;;;;;;5060657;28;20036;-65
2022/09/02 06:04:04;;;;;;;2.40;0.90;;;13.50;99.90;;;;;;5042220;28;20588;-67
2022/09/02 06:06:31;;;;;;;2.88;0.57;;;13.50;99.90;;;;;;5044480;28;20043;-67
2022/09/02 06:08:59;;;;;;;3.85;0.70;;;13.70;99.90;;;;;;5064056;28;20036;-66
2022/09/02 06:11:25;;;;;;;4.68;0.82;;;13.80;99.90;;;;;;5059820;28;20119;-65
2022/09/02 06:13:54;;;;;;;2.25;1.15;;;13.80;99.90;;;;;;5063014;28;20049;-64
2022/09/02 06:16:21;;;;;;;2.78;0.82;;;13.90;99.90;;;;;;5063776;28;20137;-64
2022/09/02 06:18:47;;;;;;;4.72;0.60;;;14.00;99.90;;;;;;5080539;28;20040;-67
2022/09/02 06:21:15;;;;;;;2.80;0.73;;;14.00;99.90;;;;;;5063024;28;20044;-65
2022/09/02 06:23:41;;;;;;;1.50;0.75;;;14.10;99.90;;;;;;5082666;28;20041;-64
2022/09/02 06:26:08;;;;;;;2.85;0.55;;;14.20;99.90;;;;;;5060078;28;20036;-65
2022/09/02 06:28:34;;;;;;;2.88;0.85;;;14.40;99.90;;;;;;5081557;28;20047;-65
2022/09/02 06:31:10;;;;;;;2.25;0.77;;;14.50;99.90;;;;;;5073203;28;20032;-64
2022/09/02 06:33:36;;;;;;;3.92;0.80;;;14.60;99.90;;;;;;5081235;28;20110;-65
2022/09/02 06:36:06;;;;;;;2.25;0.70;;;14.70;99.90;;;;;;5078701;28;20094;-65
2022/09/02 06:38:36;;;;;;;3.05;0.80;;;14.80;99.90;;;;;;5084291;28;20090;-66
2022/09/02 06:41:02;;;;;;;1.52;0.52;;;15.00;99.90;;;;;;5079458;28;20404;-72
2022/09/02 06:43:29;;;;;;;1.08;0.60;;;15.10;99.90;;;;;;5066332;28;20036;-64
2022/09/02 06:45:55;;;;;;;2.63;0.60;;;15.20;99.90;;;;;;5086645;28;20036;-66
2022/09/02 06:48:20;;;;;;;2.33;0.70;;;15.30;99.90;;;;;;5062820;28;20519;-65
2022/09/02 06:50:46;;;;;;;5.70;0.82;;;15.40;99.90;;;;;;5066196;28;20423;-65
2022/09/02 06:53:13;;;;;;;3.95;0.98;;;15.50;99.90;;;;;;5061012;28;20546;-65
2022/09/02 06:55:42;;;;;;;2.05;0.65;;;15.70;99.90;;;;;;5078898;28;20047;-66
2022/09/02 06:58:09;;;;;;;2.38;0.73;;;15.70;99.90;;;;;;5077473;28;20183;-67
2022/09/02 07:00:36;;;;;;;3.80;0.80;;;15.80;99.90;;;;;;5081268;28;20032;-66
2022/09/02 07:05:46;;;;;;;4.90;1.95;;;16.10;99.90;;;;;;5084969;28;20063;-65
2022/09/02 07:08:11;;;;;;;4.13;0.85;;;16.20;99.90;;;;;;5085776;28;20040;-64
2022/09/02 07:10:39;;;;;;;6.15;1.00;;;16.30;99.90;;;;;;5067338;28;20083;-65
2022/09/02 07:13:06;;;;;;;2.05;0.70;;;16.40;99.90;;;;;;5066942;28;20080;-65
2022/09/02 07:15:32;;;;;;;3.40;0.88;;;16.60;99.90;;;;;;5069475;28;20056;-64
2022/09/02 07:17:58;;;;;;;1.38;0.60;;;16.70;99.90;;;;;;5082512;28;20048;-65
2022/09/02 07:20:24;;;;;;;3.33;0.60;;;16.80;99.40;;;;;;5088838;28;20036;-65
2022/09/02 07:22:49;;;;;;;4.05;0.80;;;16.90;98.80;;;;;;5064949;28;20073;-65
2022/09/02 07:25:17;;;;;;;2.95;0.90;;;17.00;98.50;;;;;;5085718;28;20146;-67
2022/09/02 07:27:43;;;;;;;1.50;0.60;;;17.00;98.10;;;;;;5049106;28;20273;-66
2022/09/02 07:30:10;;;;;;;3.15;0.80;;;17.10;98.10;;;;;;5085785;28;20078;-66
2022/09/02 07:32:36;;;;;;;1.90;0.70;;;17.30;98.20;;;;;;5083067;28;20120;-66
2022/09/02 07:35:05;;;;;;;3.58;0.82;;;17.50;97.90;;;;;;5064033;28;20177;-64
2022/09/02 07:37:33;;;;;;;3.05;0.77;;;17.70;97.90;;;;;;5084488;28;20037;-65
2022/09/02 07:40:10;;;;;;;2.03;0.82;;;17.80;97.10;;;;;;5085436;28;20459;-64
2022/09/02 07:42:36;;;;;;;4.78;0.93;;;17.90;96.70;;;;;;5045128;28;20051;-65
2022/09/02 07:45:02;;;;;;;2.05;0.82;;;18.10;95.80;;;;;;5088093;28;20040;-65
2022/09/02 07:47:27;;;;;;;3.00;0.77;;;18.10;94.90;;;;;;5060919;28;20052;-66
2022/09/02 07:49:53;;;;;;;5.28;0.90;;;18.30;94.50;;;;;;5056424;28;20138;-65
2022/09/02 07:52:19;;;;;;;2.45;0.60;;;18.40;93.60;;;;;;5068094;28;20084;-66
2022/09/02 07:54:45;;;;;;;3.55;0.65;;;18.50;93.30;;;;;;5061326;28;20066;-65
2022/09/02 07:57:10;;;;;;;3.08;0.70;;;18.60;93.40;;;;;;5069305;28;20048;-66
2022/09/02 07:59:36;;;;;;;3.05;0.47;;;18.70;93.20;;;;;;5081981;28;20032;-66
2022/09/02 08:02:02;;;;;;;3.53;0.80;;;19.10;92.90;;;;;;5064061;28;20127;-66
2022/09/02 08:04:28;;;;;;;1.70;0.50;;;19.40;91.80;;;;;;5080566;28;20036;-66
2022/09/02 08:06:54;;;;;;;1.00;0.60;;;20.00;91.10;;;;;;5066799;28;20084;-66
2022/09/02 08:09:21;;;;;;;2.97;0.90;;;20.80;89.80;;;;;;5076197;28;20502;-65
2022/09/02 08:11:49;;;;;;;2.75;0.57;;;21.60;87.20;;;;;;5086404;28;20119;-68
2022/09/02 08:14:21;;;;;;;2.10;0.45;;;22.40;82.20;;;;;;5080108;28;20088;-66
2022/09/02 08:16:47;;;;;;;2.83;0.32;;;22.80;75.90;;;;;;5064885;28;20091;-67
2022/09/02 08:19:14;;;;;;;3.63;0.63;;;23.20;73.30;;;;;;5083007;28;20071;-66
2022/09/02 08:21:39;;;;;;;2.67;0.70;;;23.40;70.40;;;;;;5061577;28;20044;-66
2022/09/02 08:24:05;;;;;;;5.68;0.80;;;23.60;70.20;;;;;;5066172;28;20063;-65
2022/09/02 08:26:35;;;;;;;3.33;0.57;;;24.00;69.70;;;;;;5085160;28;20131;-66
2022/09/02 08:29:02;;;;;;;0.93;0.35;;;24.40;69.30;;;;;;5060359;28;20071;-66
2022/09/02 08:31:28;;;;;;;3.17;0.55;;;24.80;64.90;;;;;;5073360;28;20404;-65
2022/09/02 08:33:53;;;;;;;2.00;0.60;;;24.70;64.20;;;;;;5073491;28;20194;-66
2022/09/02 08:36:19;;;;;;;2.03;0.60;;;24.90;63.40;;;;;;5076936;28;20040;-65
2022/09/02 08:38:46;;;;;;;2.72;0.60;;;24.90;61.70;;;;;;5077617;28;20523;-66
2022/09/02 08:41:40;;;;;;;2.85;0.80;;;25.00;61.10;;;;;;5080426;28;20497;-66
2022/09/02 08:44:06;;;;;;;3.35;0.50;;;25.00;58.80;;;;;;5081536;28;20040;-65
2022/09/02 08:46:34;;;;;;;1.42;0.52;;;25.10;60.80;;;;;;5083071;28;20032;-66
2022/09/02 08:49:12;;;;;;;1.67;0.52;;;25.30;59.30;;;;;;5080535;28;20716;-65
2022/09/02 08:51:55;;;;;;;4.07;0.50;;;25.60;59.20;;;;;;5082539;28;20540;-66
2022/09/02 08:54:36;;;;;;;3.05;0.52;;;25.80;57.90;;;;;;5059141;28;20495;-66
2022/09/02 08:57:02;;;;;;;5.55;1.00;;;26.10;57.00;;;;;;5072549;28;20040;-65
2022/09/02 08:59:30;;;;;;;1.15;0.40;;;26.30;58.40;;;;;;5075975;28;20035;-65
2022/09/02 09:02:24;;;;;;;4.38;0.57;;;26.50;55.70;;;;;;5058677;28;20048;-66
2022/09/02 09:05:11;;;;;;;2.42;0.65;;;26.50;55.40;;;;;;5082263;28;20060;-66
2022/09/02 09:07:46;;;;;;;1.77;0.47;;;26.60;55.10;;;;;;5082166;28;20072;-65
2022/09/02 09:10:17;;;;;;;4.35;0.50;;;26.70;54.90;;;;;;5082175;28;20039;-65
2022/09/02 09:12:59;;;;;;;2.38;0.60;;;26.60;54.10;;;;;;5080889;28;20101;-65
2022/09/02 09:15:50;;;;;;;1.65;0.47;;;26.70;52.40;;;;;;5083854;28;20067;-66
2022/09/02 09:18:19;;;;;;;1.75;0.50;;;27.00;54.50;;;;;;5075818;28;20482;-65
2022/09/02 09:20:45;;;;;;;5.30;0.57;;;27.20;54.10;;;;;;5078695;28;20393;-65
2022/09/02 09:23:24;;;;;;;2.33;0.65;;;27.30;52.70;;;;;;5082309;28;20519;-66
2022/09/02 09:25:54;;;;;;;3.25;0.40;;;27.40;51.90;;;;;;5084683;28;20146;-65
2022/09/02 09:28:20;;;;;;;3.58;0.57;;;27.50;50.60;;;;;;5081193;28;20043;-66
2022/09/02 09:30:45;;;;;;;2.45;0.40;;;27.50;49.80;;;;;;5083105;28;20073;-65
2022/09/02 09:33:16;;;;;;;2.63;0.45;;;27.40;50.70;;;;;;5081663;28;20041;-66
2022/09/02 09:35:57;;;;;;;1.45;0.32;;;27.40;50.00;;;;;;5077146;28;20044;-66
2022/09/02 09:38:32;;;;;;;2.15;0.50;;;27.20;48.60;;;;;;5082523;28;20040;-66
2022/09/02 09:41:20;;;;;;;2.63;0.40;;;27.10;49.00;;;;;;5064290;28;20062;-65
2022/09/02 09:43:46;;;;;;;1.13;0.40;;;27.10;49.60;;;;;;5074417;28;20043;-65
2022/09/02 09:46:39;;;;;;;2.72;0.50;;;27.10;49.60;;;;;;5075081;28;20033;-66
2022/09/02 09:49:05;;;;;;;3.30;0.35;;;27.30;49.80;;;;;;5066493;28;20780;-67
2022/09/02 09:51:31;;;;;;;2.70;0.40;;;27.40;49.60;;;;;;5086935;28;20020;-66
2022/09/02 09:54:24;;;;;;;1.48;0.40;;;27.40;49.20;;;;;;5085397;28;20151;-66
2022/09/02 09:56:50;;;;;;;2.28;0.40;;;27.50;46.80;;;;;;5080681;28;20557;-66
2022/09/02 09:59:34;;;;;;;5.60;0.40;;;27.50;47.60;;;;;;5084284;28;20051;-66
2022/09/02 10:02:00;;;;;;;3.00;0.65;;;27.40;45.90;;;;;;5064003;28;20131;-66
2022/09/02 10:04:31;;;;;;;2.75;0.40;;;27.30;46.50;;;;;;5078935;28;20123;-66
2022/09/02 10:06:57;;;;;;;1.40;0.22;;;27.30;47.00;;;;;;5079973;28;20189;-66
2022/09/02 10:09:36;;;;;;;4.45;0.50;;;27.40;47.60;;;;;;5078868;28;20131;-65
2022/09/02 10:12:11;;;;;;;1.63;0.30;;;27.50;45.80;;;;;;5076147;28;20032;-66
2022/09/02 10:14:44;;;;;;;1.17;0.40;;;27.50;46.10;;;;;;5063392;28;20055;-65
2022/09/02 10:17:31;;;;;;;3.35;0.30;;;27.40;45.30;;;;;;5079760;28;20028;-66
2022/09/02 10:20:07;;;;;;;4.03;0.50;;;27.40;45.50;;;;;;5081789;28;20040;-66
2022/09/02 10:23:05;;;;;;;2.83;0.30;;;27.30;45.30;;;;;;5062509;28;20036;-65
2022/09/02 10:25:51;;;;;;;4.95;0.40;;;27.30;45.40;;;;;;5063973;28;20056;-67
2022/09/02 10:28:34;;;;;;;1.77;0.20;;;27.30;45.80;;;;;;5083644;28;20531;-66
2022/09/02 10:31:41;;;;;;;2.58;0.30;;;27.40;45.00;;;;;;5078633;28;20488;-66
2022/09/02 10:34:44;;;;;;;1.50;0.50;;;27.40;44.90;;;;;;5042921;28;20071;-66
2022/09/02 10:37:19;;;;;;;3.33;0.32;;;27.50;43.10;;;;;;5060980;28;20048;-67
2022/09/02 10:40:03;;;;;;;1.88;0.40;;;27.40;44.10;;;;;;5083296;28;20504;-67
2022/09/02 10:42:59;;;;;;;2.15;0.30;;;27.50;44.30;;;;;;5085625;28;20162;-66
2022/09/02 10:45:44;;;;;;;2.10;0.38;;;27.60;42.80;;;;;;5089547;28;20071;-66
2022/09/02 10:48:18;;;;;;;3.47;0.40;;;27.40;42.60;;;;;;5085677;28;20375;-65
2022/09/02 10:50:52;;;;;;;2.13;0.30;;;27.40;43.30;;;;;;5081152;28;20564;-66
2022/09/02 10:53:31;;;;;;;3.88;0.50;;;27.50;43.70;;;;;;5082184;28;20060;-66
2022/09/02 10:56:00;;;;;;;6.53;0.43;;;27.70;43.60;;;;;;5078747;28;20111;-66
2022/09/02 10:58:47;;;;;;;5.25;0.47;;;27.90;43.60;;;;;;5065171;28;20589;-67
2022/09/02 11:01:27;;;;;;;3.47;0.47;;;28.10;43.30;;;;;;5085664;28;20153;-66
2022/09/02 11:04:00;;;;;;;2.55;0.70;;;28.30;43.60;;;;;;5086155;28;20089;-66
2022/09/02 11:06:29;;;;;;;1.10;0.40;;;28.30;41.40;;;;;;5085600;28;20048;-66
2022/09/02 11:09:05;;;;;;;3.55;0.30;;;28.10;42.40;;;;;;5067065;28;20106;-66
2022/09/02 11:11:51;;;;;;;4.97;0.47;;;28.10;42.50;;;;;;5085857;28;20044;-67
2022/09/02 11:14:33;;;;;;;2.08;0.35;;;28.20;42.60;;;;;;5084226;28;20045;-66
2022/09/02 11:17:01;;;;;;;1.43;0.30;;;28.40;41.00;;;;;;5080099;28;20111;-67
2022/09/02 11:19:45;;;;;;;2.58;0.40;;;28.50;42.00;;;;;;5084146;28;20534;-67
2022/09/02 11:22:34;;;;;;;2.00;0.32;;;28.60;40.00;;;;;;5081070;28;20124;-66
2022/09/02 11:25:04;;;;;;;0.88;0.30;;;28.50;39.90;;;;;;5084560;28;20067;-66
2022/09/02 11:28:04;;;;;;;2.63;0.35;;;28.30;40.10;;;;;;5067993;28;20048;-66
2022/09/02 11:30:44;;;;;;;2.88;0.40;;;28.10;39.30;;;;;;5075138;28;20049;-65
2022/09/02 11:33:27;;;;;;;2.10;0.45;;;28.10;40.20;;;;;;5065573;28;20053;-65
2022/09/02 11:35:52;;;;;;;0.95;0.30;;;28.40;41.30;;;;;;5088310;28;20113;-65
2022/09/02 11:38:18;;;;;;;4.72;0.47;;;28.70;40.10;;;;;;5080963;28;20502;-66
2022/09/02 11:41:17;;;;;;;0.98;0.40;;;28.60;39.60;;;;;;5087488;28;20048;-65
2022/09/02 11:43:53;;;;;;;3.08;0.30;;;28.80;38.50;;;;;;5082550;28;20043;-65
2022/09/02 11:46:47;;;;;;;1.52;0.30;;;28.90;39.80;;;;;;5082910;28;20040;-65
2022/09/02 11:49:28;;;;;;;;;;;29.00;39.30;;;;;;5080086;28;20361;-66
2022/09/02 11:52:06;;;;;;;3.30;0.52;;;29.20;40.10;;;;;;5085625;28;20011;-66
2022/09/02 11:54:41;;;;;;;2.35;0.30;;;29.50;39.30;;;;;;5064792;28;20045;-66
2022/09/02 11:57:12;;;;;;;2.45;0.32;;;30.00;38.50;;;;;;5088204;28;20484;-66
2022/09/02 11:59:50;;;;;;;2.58;0.40;;;30.00;38.30;;;;;;5065539;28;20051;-65
2022/09/02 12:02:42;;;;;;;2.80;0.40;;;30.00;38.30;;;;;;5085890;28;20039;-65
2022/09/02 12:05:29;;;;;;;2.22;0.30;;;30.30;38.10;;;;;;5078722;28;20040;-66
2022/09/02 12:08:11;;;;;;;0.90;0.40;;;30.40;37.00;;;;;;5077920;28;20512;-66
2022/09/02 12:10:46;;;;;;;3.90;0.30;;;30.10;37.60;;;;;;5081042;28;20044;-66
2022/09/02 12:13:39;;;;;;;2.28;0.40;;;30.00;37.00;;;;;;5084586;28;20090;-66
2022/09/02 12:16:14;;;;;;;4.30;0.50;;;29.90;38.40;;;;;;5082377;28;20024;-66
2022/09/02 12:18:52;;;;;;;3.92;0.52;;;30.00;37.70;;;;;;5062280;28;20057;-66
2022/09/02 12:21:19;;;;;;;3.97;0.50;;;30.10;38.90;;;;;;5077413;28;20041;-67
2022/09/02 12:24:09;;;;;;;9.20;0.70;;;30.50;39.20;;;;;;5080883;28;20102;-66
2022/09/02 12:26:34;;;;;;;3.33;0.40;;;30.70;38.80;;;;;;5065598;28;20199;-66
2022/09/02 12:29:18;;;;;;;2.65;0.50;;;30.90;38.00;;;;;;5074897;28;20437;-66
2022/09/02 12:31:47;;;;;;;1.85;0.40;;;30.90;35.80;;;;;;5076991;28;20062;-67
2022/09/02 12:34:19;;;;;;;2.63;0.50;;;30.70;37.60;;;;;;5075463;28;20482;-65
2022/09/02 12:36:47;;;;;;;1.45;0.40;;;30.80;37.90;;;;;;5043721;28;20060;-66
2022/09/02 12:39:21;;;;;;;1.88;0.50;;;30.80;36.60;;;;;;5083745;28;20376;-63
2022/09/02 12:41:54;;;;;;;1.42;0.45;;;30.90;37.40;;;;;;5081902;28;20047;-62
2022/09/02 12:44:29;;;;;;;2.00;0.60;;;30.90;37.60;;;;;;5079519;28;20507;-64
2022/09/02 12:47:18;;;;;;;3.83;0.40;;;31.00;36.50;;;;;;5079380;28;20342;-63
2022/09/02 12:49:59;;;;;;;3.33;0.40;;;31.10;36.80;;;;;;5070139;28;20055;-64
2022/09/02 12:52:33;;;;;;;2.50;0.55;;;31.00;37.00;;;;;;5082394;28;20553;-63
2022/09/02 12:55:27;;;;;;;0.90;0.40;;;30.80;37.10;;;;;;5079611;28;20052;-64
2022/09/02 12:58:05;;;;;;;3.13;0.30;;;30.90;36.80;;;;;;5076445;28;20098;-64
2022/09/02 13:00:40;;;;;;;1.20;0.63;;;30.90;37.00;;;;;;5085503;28;20054;-65
2022/09/02 13:03:35;;;;;;;3.55;0.40;;;30.80;36.30;;;;;;5081755;28;20143;-64
2022/09/02 13:06:05;;;;;;;4.20;0.32;;;30.90;36.90;;;;;;5077743;28;20040;-64
2022/09/02 13:09:03;;;;;;;3.25;0.30;;;31.00;36.60;;;;;;5082127;28;20044;-64
2022/09/02 13:11:29;;;;;;;3.80;0.50;;;31.10;36.80;;;;;;5078899;28;20044;-64